sensor_id;sensor_type;location;lat;lon;timestamp;temperature;humidity
296;DHT22;132;48.770;9.200;2022-07-04T00:01:23;21.70;1.00
296;DHT22;132;48.770;9.200;2022-07-04T00:03:49;21.70;1.00
296;DHT22;132;48.770;9.200;2022-07-04T00:06:16;21.70;1.00
296;DHT22;132;48.770;9.200;2022-07-04T00:08:42;21.70;1.00
296;DHT22;132;48.770;9.200;2022-07-04T00:11:09;21.70;1.00
296;DHT22;132;48.770;9.200;2022-07-04T00:13:35;21.70;1.00
296;DHT22;132;48.770;9.200;2022-07-04T00:16:02;21.60;1.00
296;DHT22;132;48.770;9.200;2022-07-04T00:18:28;22.60;1.00
296;DHT22;132;48.770;9.200;2022-07-04T00:20:55;21.60;1.00
296;DHT22;132;48.770;9.200;2022-07-04T00:23:21;21.60;1.00
296;DHT22;132;48.770;9.200;2022-07-04T00:25:48;21.50;1.00
296;DHT22;132;48.770;9.200;2022-07-04T00:28:14;21.50;1.00
296;DHT22;132;48.770;9.200;2022-07-04T00:30:41;21.60;1.00
296;DHT22;132;48.770;9.200;2022-07-04T00:33:11;21.50;1.00
296;DHT22;132;48.770;9.200;2022-07-04T00:35:38;21.50;1.00
296;DHT22;132;48.770;9.200;2022-07-04T00:38:05;21.40;1.00
296;DHT22;132;48.770;9.200;2022-07-04T00:40:31;21.40;1.00
296;DHT22;132;48.770;9.200;2022-07-04T00:43:02;21.40;1.00
296;DHT22;132;48.770;9.200;2022-07-04T00:45:29;21.30;1.00
296;DHT22;132;48.770;9.200;2022-07-04T00:47:56;21.30;1.00
296;DHT22;132;48.770;9.200;2022-07-04T00:50:24;21.30;1.00
296;DHT22;132;48.770;9.200;2022-07-04T00:52:52;21.30;1.00
296;DHT22;132;48.770;9.200;2022-07-04T00:55:22;21.30;1.00
296;DHT22;132;48.770;9.200;2022-07-04T00:57:48;21.30;1.00
296;DHT22;132;48.770;9.200;2022-07-04T01:00:17;21.20;1.00
296;DHT22;132;48.770;9.200;2022-07-04T01:02:44;21.20;1.00
296;DHT22;132;48.770;9.200;2022-07-04T01:05:12;21.20;1.00
296;DHT22;132;48.770;9.200;2022-07-04T01:07:39;21.20;1.00
296;DHT22;132;48.770;9.200;2022-07-04T01:10:06;21.10;1.00
296;DHT22;132;48.770;9.200;2022-07-04T01:12:32;21.20;1.00
296;DHT22;132;48.770;9.200;2022-07-04T01:14:59;21.10;1.00
296;DHT22;132;48.770;9.200;2022-07-04T01:17:25;21.00;1.00
296;DHT22;132;48.770;9.200;2022-07-04T01:19:52;21.00;1.00
296;DHT22;132;48.770;9.200;2022-07-04T01:22:18;20.90;1.00
296;DHT22;132;48.770;9.200;2022-07-04T01:24:45;20.90;1.00
296;DHT22;132;48.770;9.200;2022-07-04T01:27:12;20.90;1.00
296;DHT22;132;48.770;9.200;2022-07-04T01:29:38;20.90;1.00
296;DHT22;132;48.770;9.200;2022-07-04T01:32:06;20.80;1.00
296;DHT22;132;48.770;9.200;2022-07-04T01:34:33;20.80;1.00
296;DHT22;132;48.770;9.200;2022-07-04T01:37:00;20.80;1.00
296;DHT22;132;48.770;9.200;2022-07-04T01:39:29;20.80;1.00
296;DHT22;132;48.770;9.200;2022-07-04T01:41:56;20.80;1.00
296;DHT22;132;48.770;9.200;2022-07-04T01:44:22;20.60;1.00
296;DHT22;132;48.770;9.200;2022-07-04T01:46:49;20.60;1.00
296;DHT22;132;48.770;9.200;2022-07-04T01:49:15;20.60;1.00
296;DHT22;132;48.770;9.200;2022-07-04T01:51:46;20.60;1.00
296;DHT22;132;48.770;9.200;2022-07-04T01:54:13;20.60;1.00
296;DHT22;132;48.770;9.200;2022-07-04T01:56:40;20.50;1.00
296;DHT22;132;48.770;9.200;2022-07-04T01:59:07;20.50;1.00
296;DHT22;132;48.770;9.200;2022-07-04T02:01:34;20.60;1.00
296;DHT22;132;48.770;9.200;2022-07-04T02:04:02;20.50;1.00
296;DHT22;132;48.770;9.200;2022-07-04T02:06:29;20.50;1.00
296;DHT22;132;48.770;9.200;2022-07-04T02:08:56;20.50;1.00
296;DHT22;132;48.770;9.200;2022-07-04T02:11:42;20.50;1.00
296;DHT22;132;48.770;9.200;2022-07-04T02:14:29;20.40;1.00
296;DHT22;132;48.770;9.200;2022-07-04T02:16:56;20.30;1.00
296;DHT22;132;48.770;9.200;2022-07-04T02:19:23;20.40;1.00
296;DHT22;132;48.770;9.200;2022-07-04T02:21:50;20.30;1.00
296;DHT22;132;48.770;9.200;2022-07-04T02:24:18;20.30;1.00
296;DHT22;132;48.770;9.200;2022-07-04T02:26:46;20.20;1.00
296;DHT22;132;48.770;9.200;2022-07-04T02:29:12;20.10;1.00
296;DHT22;132;48.770;9.200;2022-07-04T02:31:38;20.10;1.00
296;DHT22;132;48.770;9.200;2022-07-04T02:34:05;20.10;1.00
296;DHT22;132;48.770;9.200;2022-07-04T02:36:31;20.00;1.00
296;DHT22;132;48.770;9.200;2022-07-04T02:38:58;20.00;1.00
296;DHT22;132;48.770;9.200;2022-07-04T02:41:24;19.90;1.00
296;DHT22;132;48.770;9.200;2022-07-04T02:43:51;19.90;1.00
296;DHT22;132;48.770;9.200;2022-07-04T02:46:18;19.90;1.00
296;DHT22;132;48.770;9.200;2022-07-04T02:48:44;19.90;1.00
296;DHT22;132;48.770;9.200;2022-07-04T02:51:11;19.80;1.00
296;DHT22;132;48.770;9.200;2022-07-04T02:53:37;19.80;1.00
296;DHT22;132;48.770;9.200;2022-07-04T02:56:03;19.80;1.00
296;DHT22;132;48.770;9.200;2022-07-04T02:58:32;19.70;1.00
296;DHT22;132;48.770;9.200;2022-07-04T03:00:59;19.70;1.00
296;DHT22;132;48.770;9.200;2022-07-04T03:03:26;19.60;1.00
296;DHT22;132;48.770;9.200;2022-07-04T03:05:53;19.60;1.00
296;DHT22;132;48.770;9.200;2022-07-04T03:08:19;19.50;1.00
296;DHT22;132;48.770;9.200;2022-07-04T03:10:46;19.50;1.00
296;DHT22;132;48.770;9.200;2022-07-04T03:13:12;19.50;1.00
296;DHT22;132;48.770;9.200;2022-07-04T03:15:38;19.50;1.00
296;DHT22;132;48.770;9.200;2022-07-04T03:18:05;19.40;1.00
296;DHT22;132;48.770;9.200;2022-07-04T03:20:32;19.40;1.00
296;DHT22;132;48.770;9.200;2022-07-04T03:22:58;19.40;1.00
296;DHT22;132;48.770;9.200;2022-07-04T03:25:24;19.30;1.00
296;DHT22;132;48.770;9.200;2022-07-04T03:27:52;19.30;1.00
296;DHT22;132;48.770;9.200;2022-07-04T03:30:19;19.20;1.00
296;DHT22;132;48.770;9.200;2022-07-04T03:32:46;19.20;1.00
296;DHT22;132;48.770;9.200;2022-07-04T03:35:12;19.20;1.00
296;DHT22;132;48.770;9.200;2022-07-04T03:37:39;19.20;1.00
296;DHT22;132;48.770;9.200;2022-07-04T03:40:06;19.20;1.00
296;DHT22;132;48.770;9.200;2022-07-04T03:42:32;19.30;1.00
296;DHT22;132;48.770;9.200;2022-07-04T03:44:58;19.20;1.00
296;DHT22;132;48.770;9.200;2022-07-04T03:47:25;19.10;1.00
296;DHT22;132;48.770;9.200;2022-07-04T03:49:51;19.10;1.00
296;DHT22;132;48.770;9.200;2022-07-04T03:52:18;19.10;1.00
296;DHT22;132;48.770;9.200;2022-07-04T03:54:44;19.10;1.00
296;DHT22;132;48.770;9.200;2022-07-04T03:57:10;19.10;1.00
296;DHT22;132;48.770;9.200;2022-07-04T03:59:37;19.20;1.00
296;DHT22;132;48.770;9.200;2022-07-04T04:02:04;19.10;1.00
296;DHT22;132;48.770;9.200;2022-07-04T04:04:30;19.20;1.00
296;DHT22;132;48.770;9.200;2022-07-04T04:07:15;19.10;1.00
296;DHT22;132;48.770;9.200;2022-07-04T04:09:42;19.10;1.00
296;DHT22;132;48.770;9.200;2022-07-04T04:12:08;19.10;1.00
296;DHT22;132;48.770;9.200;2022-07-04T04:14:35;19.20;1.00
296;DHT22;132;48.770;9.200;2022-07-04T04:17:01;19.10;1.00
296;DHT22;132;48.770;9.200;2022-07-04T04:19:28;19.10;1.00
296;DHT22;132;48.770;9.200;2022-07-04T04:21:54;19.10;1.00
296;DHT22;132;48.770;9.200;2022-07-04T04:24:21;19.10;1.00
296;DHT22;132;48.770;9.200;2022-07-04T04:26:47;19.10;1.00
296;DHT22;132;48.770;9.200;2022-07-04T04:29:14;19.10;1.00
296;DHT22;132;48.770;9.200;2022-07-04T04:31:40;19.10;1.00
296;DHT22;132;48.770;9.200;2022-07-04T04:34:06;19.10;1.00
296;DHT22;132;48.770;9.200;2022-07-04T04:36:33;19.10;1.00
296;DHT22;132;48.770;9.200;2022-07-04T04:39:00;19.00;1.00
296;DHT22;132;48.770;9.200;2022-07-04T04:41:26;19.10;1.00
296;DHT22;132;48.770;9.200;2022-07-04T04:43:53;19.10;1.00
296;DHT22;132;48.770;9.200;2022-07-04T04:46:20;19.10;1.00
296;DHT22;132;48.770;9.200;2022-07-04T04:48:46;19.10;1.00
296;DHT22;132;48.770;9.200;2022-07-04T04:51:13;19.10;1.00
296;DHT22;132;48.770;9.200;2022-07-04T04:53:39;19.20;1.00
296;DHT22;132;48.770;9.200;2022-07-04T04:56:05;19.20;1.00
296;DHT22;132;48.770;9.200;2022-07-04T04:58:32;19.20;1.00
296;DHT22;132;48.770;9.200;2022-07-04T05:00:58;19.20;1.00
296;DHT22;132;48.770;9.200;2022-07-04T05:03:24;19.20;1.00
296;DHT22;132;48.770;9.200;2022-07-04T05:05:51;19.30;1.00
296;DHT22;132;48.770;9.200;2022-07-04T05:08:17;19.30;1.00
296;DHT22;132;48.770;9.200;2022-07-04T05:10:44;19.30;1.00
296;DHT22;132;48.770;9.200;2022-07-04T05:13:10;19.30;1.00
296;DHT22;132;48.770;9.200;2022-07-04T05:15:37;19.30;1.00
296;DHT22;132;48.770;9.200;2022-07-04T05:18:03;19.30;1.00
296;DHT22;132;48.770;9.200;2022-07-04T05:20:29;19.30;1.00
296;DHT22;132;48.770;9.200;2022-07-04T05:22:56;19.20;1.00
296;DHT22;132;48.770;9.200;2022-07-04T05:25:22;19.20;1.00
296;DHT22;132;48.770;9.200;2022-07-04T05:27:49;19.20;1.00
296;DHT22;132;48.770;9.200;2022-07-04T05:30:15;19.30;1.00
296;DHT22;132;48.770;9.200;2022-07-04T05:32:41;19.30;1.00
296;DHT22;132;48.770;9.200;2022-07-04T05:35:08;19.40;1.00
296;DHT22;132;48.770;9.200;2022-07-04T05:37:35;19.30;1.00
296;DHT22;132;48.770;9.200;2022-07-04T05:40:03;19.30;1.00
296;DHT22;132;48.770;9.200;2022-07-04T05:42:29;19.40;1.00
296;DHT22;132;48.770;9.200;2022-07-04T05:44:56;19.30;1.00
296;DHT22;132;48.770;9.200;2022-07-04T05:47:22;19.40;1.00
296;DHT22;132;48.770;9.200;2022-07-04T05:49:51;19.50;1.00
296;DHT22;132;48.770;9.200;2022-07-04T05:52:17;19.60;1.00
296;DHT22;132;48.770;9.200;2022-07-04T05:54:44;19.70;1.00
296;DHT22;132;48.770;9.200;2022-07-04T05:57:10;19.80;1.00
296;DHT22;132;48.770;9.200;2022-07-04T05:59:36;19.90;1.00
296;DHT22;132;48.770;9.200;2022-07-04T06:02:03;20.00;1.00
296;DHT22;132;48.770;9.200;2022-07-04T06:04:30;20.10;1.00
296;DHT22;132;48.770;9.200;2022-07-04T06:06:56;20.30;1.00
296;DHT22;132;48.770;9.200;2022-07-04T06:09:23;20.30;1.00
296;DHT22;132;48.770;9.200;2022-07-04T06:11:50;20.30;1.00
296;DHT22;132;48.770;9.200;2022-07-04T06:14:16;20.30;1.00
296;DHT22;132;48.770;9.200;2022-07-04T06:16:43;20.50;1.00
296;DHT22;132;48.770;9.200;2022-07-04T06:19:09;20.50;1.00
296;DHT22;132;48.770;9.200;2022-07-04T06:21:36;20.60;1.00
296;DHT22;132;48.770;9.200;2022-07-04T06:24:02;20.60;1.00
296;DHT22;132;48.770;9.200;2022-07-04T06:26:29;20.60;1.00
296;DHT22;132;48.770;9.200;2022-07-04T06:28:56;20.60;1.00
296;DHT22;132;48.770;9.200;2022-07-04T06:31:23;20.50;1.00
296;DHT22;132;48.770;9.200;2022-07-04T06:33:49;20.50;1.00
296;DHT22;132;48.770;9.200;2022-07-04T06:36:34;20.50;1.00
296;DHT22;132;48.770;9.200;2022-07-04T06:39:01;20.60;1.00
296;DHT22;132;48.770;9.200;2022-07-04T06:41:27;20.70;1.00
296;DHT22;132;48.770;9.200;2022-07-04T06:43:54;20.80;1.00
296;DHT22;132;48.770;9.200;2022-07-04T06:46:21;20.90;1.00
296;DHT22;132;48.770;9.200;2022-07-04T06:48:47;21.10;1.00
296;DHT22;132;48.770;9.200;2022-07-04T06:51:14;21.10;1.00
296;DHT22;132;48.770;9.200;2022-07-04T06:53:41;21.20;1.00
296;DHT22;132;48.770;9.200;2022-07-04T06:56:08;21.20;1.00
296;DHT22;132;48.770;9.200;2022-07-04T06:58:34;21.20;1.00
296;DHT22;132;48.770;9.200;2022-07-04T07:01:01;21.30;1.00
296;DHT22;132;48.770;9.200;2022-07-04T07:03:27;21.40;1.00
296;DHT22;132;48.770;9.200;2022-07-04T07:05:55;21.40;1.00
296;DHT22;132;48.770;9.200;2022-07-04T07:08:22;21.40;1.00
296;DHT22;132;48.770;9.200;2022-07-04T07:10:49;21.50;1.00
296;DHT22;132;48.770;9.200;2022-07-04T07:13:15;21.40;1.00
296;DHT22;132;48.770;9.200;2022-07-04T07:15:42;21.50;1.00
296;DHT22;132;48.770;9.200;2022-07-04T07:18:08;21.60;1.00
296;DHT22;132;48.770;9.200;2022-07-04T07:20:35;21.70;1.00
296;DHT22;132;48.770;9.200;2022-07-04T07:23:02;21.80;1.00
296;DHT22;132;48.770;9.200;2022-07-04T07:25:29;21.90;1.00
296;DHT22;132;48.770;9.200;2022-07-04T07:27:56;22.00;1.00
296;DHT22;132;48.770;9.200;2022-07-04T07:30:23;22.00;1.00
296;DHT22;132;48.770;9.200;2022-07-04T07:32:49;22.10;1.00
296;DHT22;132;48.770;9.200;2022-07-04T07:35:16;22.10;1.00
296;DHT22;132;48.770;9.200;2022-07-04T07:37:42;22.10;1.00
296;DHT22;132;48.770;9.200;2022-07-04T07:40:09;22.20;1.00
296;DHT22;132;48.770;9.200;2022-07-04T07:42:35;22.20;1.00
296;DHT22;132;48.770;9.200;2022-07-04T07:45:02;22.20;1.00
296;DHT22;132;48.770;9.200;2022-07-04T07:47:28;22.20;1.00
296;DHT22;132;48.770;9.200;2022-07-04T07:49:55;22.20;1.00
296;DHT22;132;48.770;9.200;2022-07-04T07:52:22;22.30;1.00
296;DHT22;132;48.770;9.200;2022-07-04T07:54:48;22.30;1.00
296;DHT22;132;48.770;9.200;2022-07-04T07:57:15;22.40;1.00
296;DHT22;132;48.770;9.200;2022-07-04T07:59:41;22.40;1.00
296;DHT22;132;48.770;9.200;2022-07-04T08:02:08;22.40;1.00
296;DHT22;132;48.770;9.200;2022-07-04T08:04:34;22.40;1.00
296;DHT22;132;48.770;9.200;2022-07-04T08:07:02;22.40;1.00
296;DHT22;132;48.770;9.200;2022-07-04T08:09:29;22.40;1.00
296;DHT22;132;48.770;9.200;2022-07-04T08:11:56;22.50;1.00
296;DHT22;132;48.770;9.200;2022-07-04T08:14:23;22.50;1.00
296;DHT22;132;48.770;9.200;2022-07-04T08:16:49;22.60;1.00
296;DHT22;132;48.770;9.200;2022-07-04T08:19:16;22.60;1.00
296;DHT22;132;48.770;9.200;2022-07-04T08:21:42;22.60;1.00
296;DHT22;132;48.770;9.200;2022-07-04T08:24:08;22.60;1.00
296;DHT22;132;48.770;9.200;2022-07-04T08:26:35;22.50;1.00
296;DHT22;132;48.770;9.200;2022-07-04T08:29:01;22.40;1.00
296;DHT22;132;48.770;9.200;2022-07-04T08:31:28;22.40;1.00
296;DHT22;132;48.770;9.200;2022-07-04T08:33:54;22.40;1.00
296;DHT22;132;48.770;9.200;2022-07-04T08:36:21;22.50;1.00
296;DHT22;132;48.770;9.200;2022-07-04T08:38:47;22.60;1.00
296;DHT22;132;48.770;9.200;2022-07-04T08:41:15;22.60;1.00
296;DHT22;132;48.770;9.200;2022-07-04T08:43:42;22.60;1.00
296;DHT22;132;48.770;9.200;2022-07-04T08:46:10;22.60;1.00
296;DHT22;132;48.770;9.200;2022-07-04T08:48:38;22.70;1.00
296;DHT22;132;48.770;9.200;2022-07-04T08:51:14;22.80;1.00
296;DHT22;132;48.770;9.200;2022-07-04T08:53:48;22.90;1.00
296;DHT22;132;48.770;9.200;2022-07-04T08:56:19;22.90;1.00
296;DHT22;132;48.770;9.200;2022-07-04T08:59:05;23.00;1.00
296;DHT22;132;48.770;9.200;2022-07-04T09:01:33;22.90;1.00
296;DHT22;132;48.770;9.200;2022-07-04T09:04:00;23.00;1.00
296;DHT22;132;48.770;9.200;2022-07-04T09:06:27;23.00;1.00
296;DHT22;132;48.770;9.200;2022-07-04T09:08:55;23.20;1.00
296;DHT22;132;48.770;9.200;2022-07-04T09:11:22;23.20;1.00
296;DHT22;132;48.770;9.200;2022-07-04T09:13:49;23.20;1.00
296;DHT22;132;48.770;9.200;2022-07-04T09:16:15;23.30;1.00
296;DHT22;132;48.770;9.200;2022-07-04T09:18:42;23.30;1.00
296;DHT22;132;48.770;9.200;2022-07-04T09:21:09;23.30;1.00
296;DHT22;132;48.770;9.200;2022-07-04T09:23:39;23.30;1.00
296;DHT22;132;48.770;9.200;2022-07-04T09:28:37;23.30;1.00
296;DHT22;132;48.770;9.200;2022-07-04T09:31:21;23.50;1.00
296;DHT22;132;48.770;9.200;2022-07-04T09:33:53;23.60;1.00
296;DHT22;132;48.770;9.200;2022-07-04T09:36:23;23.60;1.00
296;DHT22;132;48.770;9.200;2022-07-04T09:39:14;23.60;1.00
296;DHT22;132;48.770;9.200;2022-07-04T09:44:20;23.60;1.00
296;DHT22;132;48.770;9.200;2022-07-04T09:46:46;23.60;1.00
296;DHT22;132;48.770;9.200;2022-07-04T09:49:13;23.80;1.00
296;DHT22;132;48.770;9.200;2022-07-04T09:51:47;24.00;1.00
296;DHT22;132;48.770;9.200;2022-07-04T09:54:29;24.20;1.00
296;DHT22;132;48.770;9.200;2022-07-04T09:57:01;24.30;1.00
296;DHT22;132;48.770;9.200;2022-07-04T09:59:29;24.50;1.00
296;DHT22;132;48.770;9.200;2022-07-04T10:02:09;24.60;1.00
296;DHT22;132;48.770;9.200;2022-07-04T10:04:47;24.60;1.00
296;DHT22;132;48.770;9.200;2022-07-04T10:09:59;24.50;1.00
296;DHT22;132;48.770;9.200;2022-07-04T10:12:27;24.50;1.00
296;DHT22;132;48.770;9.200;2022-07-04T10:14:55;24.40;1.00
296;DHT22;132;48.770;9.200;2022-07-04T10:17:22;24.30;1.00
296;DHT22;132;48.770;9.200;2022-07-04T10:19:48;24.20;1.00
296;DHT22;132;48.770;9.200;2022-07-04T10:22:18;24.20;1.00
296;DHT22;132;48.770;9.200;2022-07-04T10:24:45;24.20;1.00
296;DHT22;132;48.770;9.200;2022-07-04T10:27:12;24.20;1.00
296;DHT22;132;48.770;9.200;2022-07-04T10:29:38;24.20;1.00
296;DHT22;132;48.770;9.200;2022-07-04T10:32:05;24.20;1.00
296;DHT22;132;48.770;9.200;2022-07-04T10:34:42;24.20;1.00
296;DHT22;132;48.770;9.200;2022-07-04T10:37:08;24.30;1.00
296;DHT22;132;48.770;9.200;2022-07-04T10:39:35;24.40;1.00
296;DHT22;132;48.770;9.200;2022-07-04T10:42:01;24.40;1.00
296;DHT22;132;48.770;9.200;2022-07-04T10:44:29;24.60;1.00
296;DHT22;132;48.770;9.200;2022-07-04T10:47:04;24.60;1.00
296;DHT22;132;48.770;9.200;2022-07-04T10:49:31;24.50;1.00
296;DHT22;132;48.770;9.200;2022-07-04T10:52:12;24.50;1.00
296;DHT22;132;48.770;9.200;2022-07-04T10:54:41;24.50;1.00
296;DHT22;132;48.770;9.200;2022-07-04T10:59:34;24.60;1.00
296;DHT22;132;48.770;9.200;2022-07-04T11:05:05;24.80;1.00
296;DHT22;132;48.770;9.200;2022-07-04T11:07:55;25.00;1.00
296;DHT22;132;48.770;9.200;2022-07-04T11:10:22;25.10;1.00
296;DHT22;132;48.770;9.200;2022-07-04T11:17:51;25.50;1.00
296;DHT22;132;48.770;9.200;2022-07-04T11:20:19;25.40;1.00
296;DHT22;132;48.770;9.200;2022-07-04T11:22:45;25.10;1.00
296;DHT22;132;48.770;9.200;2022-07-04T11:25:12;24.90;1.00
296;DHT22;132;48.770;9.200;2022-07-04T11:27:39;24.90;1.00
296;DHT22;132;48.770;9.200;2022-07-04T11:30:06;24.90;1.00
296;DHT22;132;48.770;9.200;2022-07-04T11:32:34;24.90;1.00
296;DHT22;132;48.770;9.200;2022-07-04T11:35:04;25.00;1.00
296;DHT22;132;48.770;9.200;2022-07-04T11:37:32;25.00;1.00
296;DHT22;132;48.770;9.200;2022-07-04T11:39:58;25.00;1.00
296;DHT22;132;48.770;9.200;2022-07-04T11:43:06;25.00;1.00
296;DHT22;132;48.770;9.200;2022-07-04T11:45:52;24.90;1.00
296;DHT22;132;48.770;9.200;2022-07-04T11:48:22;24.90;1.00
296;DHT22;132;48.770;9.200;2022-07-04T11:50:49;24.90;1.00
296;DHT22;132;48.770;9.200;2022-07-04T11:53:19;25.00;1.00
296;DHT22;132;48.770;9.200;2022-07-04T11:55:53;25.10;1.00
296;DHT22;132;48.770;9.200;2022-07-04T11:58:19;25.10;1.00
296;DHT22;132;48.770;9.200;2022-07-04T12:00:48;25.30;1.00
296;DHT22;132;48.770;9.200;2022-07-04T12:03:14;25.40;1.00
296;DHT22;132;48.770;9.200;2022-07-04T12:05:41;25.60;1.00
296;DHT22;132;48.770;9.200;2022-07-04T12:08:10;25.70;1.00
296;DHT22;132;48.770;9.200;2022-07-04T12:10:36;25.70;1.00
296;DHT22;132;48.770;9.200;2022-07-04T12:13:05;25.90;1.00
296;DHT22;132;48.770;9.200;2022-07-04T12:15:45;25.90;1.00
296;DHT22;132;48.770;9.200;2022-07-04T12:20:47;25.90;1.00
296;DHT22;132;48.770;9.200;2022-07-04T12:23:14;26.00;1.00
296;DHT22;132;48.770;9.200;2022-07-04T12:25:44;25.90;1.00
296;DHT22;132;48.770;9.200;2022-07-04T12:28:16;25.80;1.00
296;DHT22;132;48.770;9.200;2022-07-04T12:30:52;25.80;1.00
296;DHT22;132;48.770;9.200;2022-07-04T12:33:21;26.00;1.00
296;DHT22;132;48.770;9.200;2022-07-04T12:35:49;26.20;1.00
296;DHT22;132;48.770;9.200;2022-07-04T12:38:34;26.20;1.00
296;DHT22;132;48.770;9.200;2022-07-04T12:46:32;26.60;1.00
296;DHT22;132;48.770;9.200;2022-07-04T12:49:01;26.70;1.00
296;DHT22;132;48.770;9.200;2022-07-04T12:51:32;27.00;1.00
296;DHT22;132;48.770;9.200;2022-07-04T12:54:07;27.10;1.00
296;DHT22;132;48.770;9.200;2022-07-04T12:59:05;27.20;1.00
296;DHT22;132;48.770;9.200;2022-07-04T13:01:32;27.10;1.00
296;DHT22;132;48.770;9.200;2022-07-04T13:04:00;27.10;1.00
296;DHT22;132;48.770;9.200;2022-07-04T13:06:26;27.20;1.00
296;DHT22;132;48.770;9.200;2022-07-04T13:08:54;27.40;1.00
296;DHT22;132;48.770;9.200;2022-07-04T13:11:20;27.50;1.00
296;DHT22;132;48.770;9.200;2022-07-04T13:14:05;27.60;1.00
296;DHT22;132;48.770;9.200;2022-07-04T13:16:32;27.30;1.00
296;DHT22;132;48.770;9.200;2022-07-04T13:18:58;27.00;1.00
296;DHT22;132;48.770;9.200;2022-07-04T13:21:25;26.80;1.00
296;DHT22;132;48.770;9.200;2022-07-04T13:23:55;26.90;1.00
296;DHT22;132;48.770;9.200;2022-07-04T13:26:21;26.90;1.00
296;DHT22;132;48.770;9.200;2022-07-04T13:28:48;26.80;1.00
296;DHT22;132;48.770;9.200;2022-07-04T13:31:15;26.90;1.00
296;DHT22;132;48.770;9.200;2022-07-04T13:33:42;27.20;1.00
296;DHT22;132;48.770;9.200;2022-07-04T13:36:08;27.10;1.00
296;DHT22;132;48.770;9.200;2022-07-04T13:38:35;27.10;1.00
296;DHT22;132;48.770;9.200;2022-07-04T13:41:01;27.20;1.00
296;DHT22;132;48.770;9.200;2022-07-04T13:43:28;27.70;1.00
296;DHT22;132;48.770;9.200;2022-07-04T13:45:55;28.10;1.00
296;DHT22;132;48.770;9.200;2022-07-04T13:48:23;28.60;1.00
296;DHT22;132;48.770;9.200;2022-07-04T13:50:51;28.50;1.00
296;DHT22;132;48.770;9.200;2022-07-04T13:53:17;28.10;1.00
296;DHT22;132;48.770;9.200;2022-07-04T13:55:44;27.90;1.00
296;DHT22;132;48.770;9.200;2022-07-04T13:58:10;27.60;1.00
296;DHT22;132;48.770;9.200;2022-07-04T14:00:38;27.60;1.00
296;DHT22;132;48.770;9.200;2022-07-04T14:03:07;27.40;1.00
296;DHT22;132;48.770;9.200;2022-07-04T14:05:33;27.30;1.00
296;DHT22;132;48.770;9.200;2022-07-04T14:08:00;27.60;1.00
296;DHT22;132;48.770;9.200;2022-07-04T14:10:26;27.70;1.00
296;DHT22;132;48.770;9.200;2022-07-04T14:12:53;27.60;1.00
296;DHT22;132;48.770;9.200;2022-07-04T14:15:19;27.50;1.00
296;DHT22;132;48.770;9.200;2022-07-04T14:17:45;27.50;1.00
296;DHT22;132;48.770;9.200;2022-07-04T14:20:12;28.20;1.00
296;DHT22;132;48.770;9.200;2022-07-04T14:22:39;27.40;1.00
296;DHT22;132;48.770;9.200;2022-07-04T14:25:07;28.40;1.00
296;DHT22;132;48.770;9.200;2022-07-04T14:27:34;29.80;1.00
296;DHT22;132;48.770;9.200;2022-07-04T14:30:00;30.60;1.00
296;DHT22;132;48.770;9.200;2022-07-04T14:32:27;30.90;1.00
296;DHT22;132;48.770;9.200;2022-07-04T14:34:53;31.00;1.00
296;DHT22;132;48.770;9.200;2022-07-04T14:37:20;30.60;1.00
296;DHT22;132;48.770;9.200;2022-07-04T14:39:46;30.50;1.00
296;DHT22;132;48.770;9.200;2022-07-04T14:42:13;31.10;1.00
296;DHT22;132;48.770;9.200;2022-07-04T14:44:39;31.70;1.00
296;DHT22;132;48.770;9.200;2022-07-04T14:47:05;32.20;1.00
296;DHT22;132;48.770;9.200;2022-07-04T14:49:32;32.70;1.00
296;DHT22;132;48.770;9.200;2022-07-04T14:52:00;33.10;1.00
296;DHT22;132;48.770;9.200;2022-07-04T14:54:26;33.50;1.00
296;DHT22;132;48.770;9.200;2022-07-04T14:56:53;34.00;1.00
296;DHT22;132;48.770;9.200;2022-07-04T14:59:19;34.10;1.00
296;DHT22;132;48.770;9.200;2022-07-04T15:01:46;34.30;1.00
296;DHT22;132;48.770;9.200;2022-07-04T15:04:12;34.20;1.00
296;DHT22;132;48.770;9.200;2022-07-04T15:06:38;34.50;1.00
296;DHT22;132;48.770;9.200;2022-07-04T15:09:05;33.80;1.00
296;DHT22;132;48.770;9.200;2022-07-04T15:11:32;33.20;1.00
296;DHT22;132;48.770;9.200;2022-07-04T15:13:59;33.40;1.00
296;DHT22;132;48.770;9.200;2022-07-04T15:16:25;33.00;1.00
296;DHT22;132;48.770;9.200;2022-07-04T15:18:52;32.50;1.00
296;DHT22;132;48.770;9.200;2022-07-04T15:21:19;32.90;1.00
296;DHT22;132;48.770;9.200;2022-07-04T15:24:04;32.90;1.00
296;DHT22;132;48.770;9.200;2022-07-04T15:26:41;33.10;1.00
296;DHT22;132;48.770;9.200;2022-07-04T15:29:09;32.30;1.00
296;DHT22;132;48.770;9.200;2022-07-04T15:31:35;31.40;1.00
296;DHT22;132;48.770;9.200;2022-07-04T15:34:02;30.60;1.00
296;DHT22;132;48.770;9.200;2022-07-04T15:36:29;29.90;1.00
296;DHT22;132;48.770;9.200;2022-07-04T15:38:55;29.70;1.00
296;DHT22;132;48.770;9.200;2022-07-04T15:41:22;28.70;1.00
296;DHT22;132;48.770;9.200;2022-07-04T15:43:48;28.20;1.00
296;DHT22;132;48.770;9.200;2022-07-04T15:46:15;28.60;1.00
296;DHT22;132;48.770;9.200;2022-07-04T15:48:41;29.10;1.00
296;DHT22;132;48.770;9.200;2022-07-04T15:51:07;28.90;1.00
296;DHT22;132;48.770;9.200;2022-07-04T15:53:34;28.70;1.00
296;DHT22;132;48.770;9.200;2022-07-04T15:56:00;28.40;1.00
296;DHT22;132;48.770;9.200;2022-07-04T15:58:26;28.20;1.00
296;DHT22;132;48.770;9.200;2022-07-04T16:00:53;28.00;1.00
296;DHT22;132;48.770;9.200;2022-07-04T16:03:19;27.80;1.00
296;DHT22;132;48.770;9.200;2022-07-04T16:05:45;27.80;1.00
296;DHT22;132;48.770;9.200;2022-07-04T16:08:12;28.00;1.00
296;DHT22;132;48.770;9.200;2022-07-04T16:10:38;27.80;1.00
296;DHT22;132;48.770;9.200;2022-07-04T16:13:05;27.80;1.00
296;DHT22;132;48.770;9.200;2022-07-04T16:15:31;27.50;1.00
296;DHT22;132;48.770;9.200;2022-07-04T16:17:58;27.50;1.00
296;DHT22;132;48.770;9.200;2022-07-04T16:20:25;27.40;1.00
296;DHT22;132;48.770;9.200;2022-07-04T16:22:51;27.20;1.00
296;DHT22;132;48.770;9.200;2022-07-04T16:25:17;27.10;1.00
296;DHT22;132;48.770;9.200;2022-07-04T16:27:44;27.10;1.00
296;DHT22;132;48.770;9.200;2022-07-04T16:30:11;27.20;1.00
296;DHT22;132;48.770;9.200;2022-07-04T16:32:38;27.20;1.00
296;DHT22;132;48.770;9.200;2022-07-04T16:35:06;27.20;1.00
296;DHT22;132;48.770;9.200;2022-07-04T16:37:34;27.20;1.00
296;DHT22;132;48.770;9.200;2022-07-04T16:40:00;27.10;1.00
296;DHT22;132;48.770;9.200;2022-07-04T16:42:27;27.20;1.00
296;DHT22;132;48.770;9.200;2022-07-04T16:44:53;27.20;1.00
296;DHT22;132;48.770;9.200;2022-07-04T16:47:19;27.30;1.00
296;DHT22;132;48.770;9.200;2022-07-04T16:49:46;27.30;1.00
296;DHT22;132;48.770;9.200;2022-07-04T16:52:13;27.30;1.00
296;DHT22;132;48.770;9.200;2022-07-04T16:54:39;27.20;1.00
296;DHT22;132;48.770;9.200;2022-07-04T16:57:06;27.10;1.00
296;DHT22;132;48.770;9.200;2022-07-04T16:59:33;27.10;1.00
296;DHT22;132;48.770;9.200;2022-07-04T17:02:00;27.00;1.00
296;DHT22;132;48.770;9.200;2022-07-04T17:04:26;27.00;1.00
296;DHT22;132;48.770;9.200;2022-07-04T17:06:53;27.00;1.00
296;DHT22;132;48.770;9.200;2022-07-04T17:09:19;27.00;1.00
296;DHT22;132;48.770;9.200;2022-07-04T17:11:45;27.10;1.00
296;DHT22;132;48.770;9.200;2022-07-04T17:14:12;26.90;1.00
296;DHT22;132;48.770;9.200;2022-07-04T17:16:38;26.90;1.00
296;DHT22;132;48.770;9.200;2022-07-04T17:19:05;27.00;1.00
296;DHT22;132;48.770;9.200;2022-07-04T17:21:32;27.00;1.00
296;DHT22;132;48.770;9.200;2022-07-04T17:23:58;27.00;1.00